Aérodrome :
LOGIN :

S'inscrire | Disclaimer

   EN    FR    IT 

 










Légende :    VFR   VFR Marginal   IFR   IFR Intensif   IFR Très Intensif
Visi : 
Plafond : 
>= 8 km
>= 3000ft
5 à 8 km
1000 à 3000 ft
1500m à 5 km
500 à 1000 ft
800 à 1500m
200 à 500 ft
< 800m
< 200 ft
Symboles :   Orages  Brouillard  Fortes neiges  Fortes précipitations  Vent > 20 kt
SIGMETs :   Divers  Orages  Givrage  Turbulence  Onde Orograph.  Cendres Volcan.







- Altitude de l'aérodrome : 49 ft
- Code IATA : GLZ


EHGR - Gilze-Rijen Airbase

DERNIER METAR :
  • 180825Z AUTO VRB02KT 9999 OVC340 22/16 Q1015 BLU VRB03KT CAVOK

METARs EXPIRÉS :
  • 180755Z AUTO 02003KT 360V080 9999 OVC280 22/16 Q1015 BLU 36003KT CAVOK
  • 180725Z AUTO 02004KT 290V080 9999 FEW320 21/16 Q1015 BLU 36003KT CAVOK
  • 180655Z AUTO VRB02KT 9999 BKN310 BKN370 20/16 Q1015 BLU 36003KT CAVOK
  • 180643Z AUTO 36003KT 300V060 9999 OVC320 20/15 Q1015 BLU 36003KT CAVOK
  • 180625Z AUTO 34003KT 310V070 9999 OVC320 19/15 Q1015 BLU
  • 180555Z AUTO 32003KT 280V020 9999 BKN360 18/15 Q1015 BLU

TAF TAF EHGR
Valide du 18 à 05h jusqu'au 18 à 17h UTC


180428Z 1805/1817 VRB01KT CAVOK
BECMG 1808/1811 13003KT
Pas de NOTAMs connus pour ce terrain.



MET'MAP, la Météo Aéronautique d'un coup d'oeil ! - Copyright ORBIFLY Décembre 2007 - Disclaimer

ORBIFLY MET'MAP TEAM :

Programmation & Développement : Alexandra Zaïnal
Conception & Développement : Baudouin d'Aumeries
Co-Programmation & Développement : Marc-Olivier Méhu
Soutien technique & logistique : Manuel Goepfert

Contact : metmap@orbifly.com




SOURCES & CREDITS :

   NOAA